Savannah Hilton Head International Airport Savannah US
ICAO: KSAV
IATA: SAV
Category: Large
Scheduled Services: Yes

Elevation: 50 ft
TransAlt. 18000 ft.

Airport Communications:
APP/DEP:118.4
ATIS:123.75
CLNC DEL:119.55
CTAF:119.1
GND:121.9
ANDERSON RDO:112.7
CRTC OPS:23.7
165 AW COMD POST:22.575
MACON RDO:123.65
TWR:119.1
UNICOM:122.95

KSAV Zoom In..

If you have problems with the map follow the link
https://www.worldairports.se/pages/airport.php?
ICAO=KSAV

Runways:

(A) RW 01 length 7002 ft width 150 ft
ILS 111.90 / hdg 6

(B) RW 10 length 9351 ft width 150 ft
ILS 109.90 / hdg 97

(C) RW 19 length 7002 ft width 150 ft
---- / hdg 186

(D) RW 28 length 9351 ft width 150 ft
---- / hdg 277

Location; KSAV
Day. 05 / Time. 21.53 Zulu
* Altimeter: 30.13
* Temperature: 18° c. 64.4°f.
* Wind from: 220° Speed 04 kn.
Dewpoint: 02° c.
Visibility: 10 Statute Miles.
Clouds: Few 4000 ft.
Clouds: Few 18000 ft.
Clouds: Few 4000 ft.
Conditions: Smoke.

KSAV 052153Z 22004KT 10SM FEW040 FEW180 18/02 A3013 RMK AO2 SLP201 FU FEW040 NE T01780017


Wind From 220°
Speed 04 kn.

 
 
jpsmedia worldairports.se 2019   terms of use